Geldermalsen, Netherlands
Current Conditions -  °F | °C
As of 1:06 PM on Friday 19 Dec 2014 (Local Time) from EHVK Reporting Station
Light Rain Light Rain  
Wind Chill: 45°   Ceiling: 900
Heat Index: 48°   Visibility: 6mi
Dew Point: 46°   Wind: 8mph
Humidity: 93%   Direction: 270°W
Pressure: 29.85"   Gusts: NA
Location:  51.88°N, 5.29°E
Report Text: EHVK 191206Z AUTO 27007KT 9999 -RA FEW005 SCT007 BKN009 09/08 Q1011 GRN 28009KT 9999 SCT006 BKN020 BECMG FEW010 BKN035
Loading
Personal Weather Stations






























Interactive Weather Map New forecast layout! Learn more

10-Day Weather Forecast

Advertisements
Track Severe Weather on mobile